createdAt,value
2023-04-27T00:00:09.885Z,0.00
2023-04-27T00:01:09.849Z,0.00
2023-04-27T00:02:09.903Z,0.00
2023-04-27T00:03:10.178Z,0.00
2023-04-27T00:04:09.970Z,0.00
2023-04-27T00:05:09.890Z,0.00
2023-04-27T00:06:09.982Z,0.00
2023-04-27T00:07:09.859Z,0.00
2023-04-27T00:08:09.866Z,0.00
2023-04-27T00:09:09.805Z,0.00
2023-04-27T00:10:09.765Z,0.00
2023-04-27T00:11:09.767Z,0.00
2023-04-27T00:12:09.762Z,0.00
2023-04-27T00:13:09.905Z,0.00
2023-04-27T00:14:09.719Z,0.00
2023-04-27T00:15:09.719Z,0.00
2023-04-27T00:16:09.756Z,0.00
2023-04-27T00:17:09.694Z,0.00
2023-04-27T00:18:09.979Z,0.00
2023-04-27T00:19:09.777Z,0.00
2023-04-27T00:20:09.650Z,0.00
2023-04-27T00:21:09.640Z,0.00
2023-04-27T00:22:09.637Z,0.00
2023-04-27T00:23:09.638Z,0.00
2023-04-27T00:24:09.589Z,0.00
2023-04-27T00:25:09.598Z,0.00
2023-04-27T00:26:09.581Z,0.00
2023-04-27T00:27:09.572Z,0.00
2023-04-27T00:28:09.596Z,0.00
2023-04-27T00:29:09.550Z,0.00
2023-04-27T00:30:09.545Z,0.00
2023-04-27T00:31:09.523Z,0.00
2023-04-27T00:32:09.601Z,0.00
2023-04-27T00:33:09.510Z,0.00
2023-04-27T00:34:09.498Z,0.00
2023-04-27T00:35:09.499Z,0.00
2023-04-27T00:36:09.471Z,0.00
2023-04-27T00:37:09.461Z,0.00
2023-04-27T00:38:09.451Z,0.00
2023-04-27T00:39:09.438Z,0.00
2023-04-27T00:40:09.431Z,0.00
2023-04-27T00:41:09.411Z,0.00
2023-04-27T00:42:09.402Z,0.00
2023-04-27T00:43:09.385Z,0.00
2023-04-27T00:44:09.397Z,0.00
2023-04-27T00:45:09.377Z,0.00
2023-04-27T00:46:09.387Z,0.00
2023-04-27T00:47:09.340Z,0.00
2023-04-27T00:48:09.376Z,0.00
2023-04-27T00:49:09.354Z,0.00
2023-04-27T00:50:09.303Z,0.00
2023-04-27T00:51:09.312Z,0.00
2023-04-27T00:52:09.285Z,0.00
2023-04-27T00:53:09.273Z,0.00
2023-04-27T00:54:09.263Z,0.00
2023-04-27T00:55:09.232Z,0.00
2023-04-27T00:56:09.243Z,0.00
2023-04-27T00:57:09.255Z,0.00
2023-04-27T00:58:09.218Z,0.00
2023-04-27T00:59:09.228Z,0.00
2023-04-27T01:00:09.185Z,0.00
2023-04-27T01:01:09.240Z,0.00
2023-04-27T01:02:09.326Z,0.00
2023-04-27T01:03:09.292Z,0.00
2023-04-27T01:04:09.356Z,0.00
2023-04-27T01:05:09.149Z,0.00
2023-04-27T01:06:09.119Z,0.00
2023-04-27T01:07:09.118Z,0.00
2023-04-27T01:08:09.101Z,0.00
2023-04-27T01:09:09.098Z,0.00
2023-04-27T01:10:09.100Z,0.00
2023-04-27T01:11:09.056Z,0.00
2023-04-27T01:12:09.116Z,0.00
2023-04-27T01:13:09.024Z,0.00
2023-04-27T01:14:09.041Z,0.00
2023-04-27T01:15:09.040Z,0.00
2023-04-27T01:16:09.013Z,0.00
2023-04-27T01:17:09.207Z,0.00
2023-04-27T01:18:09.068Z,0.00
2023-04-27T01:19:08.987Z,0.00
2023-04-27T01:20:08.949Z,0.00
2023-04-27T01:21:08.952Z,0.00
2023-04-27T01:22:08.982Z,0.00
2023-04-27T01:23:08.968Z,0.00
2023-04-27T01:24:08.982Z,0.00
2023-04-27T01:25:08.930Z,0.00
2023-04-27T01:26:08.895Z,0.00
2023-04-27T01:27:08.878Z,0.00
2023-04-27T01:28:08.861Z,0.00
2023-04-27T01:29:08.841Z,0.00
2023-04-27T01:30:08.862Z,0.00
2023-04-27T01:31:08.985Z,0.00
2023-04-27T01:32:08.839Z,0.00
2023-04-27T01:33:09.047Z,0.00
2023-04-27T01:34:08.811Z,0.00
2023-04-27T01:35:08.800Z,0.00
2023-04-27T01:36:08.783Z,0.00
2023-04-27T01:37:08.757Z,0.00
2023-04-27T01:38:08.743Z,0.00
2023-04-27T01:39:08.777Z,0.00
2023-04-27T01:40:08.744Z,0.00
2023-04-27T01:41:08.728Z,0.00
2023-04-27T01:42:08.718Z,0.00
2023-04-27T01:43:08.708Z,0.00
2023-04-27T01:44:08.746Z,0.00
2023-04-27T01:45:08.671Z,0.00
2023-04-27T01:46:08.759Z,0.00
2023-04-27T01:47:08.674Z,0.00
2023-04-27T01:48:08.695Z,0.00
2023-04-27T01:49:08.636Z,0.00
2023-04-27T01:50:08.616Z,0.00
2023-04-27T01:51:08.632Z,0.00
2023-04-27T01:52:08.601Z,0.00
2023-04-27T01:53:08.585Z,0.00
2023-04-27T01:54:08.569Z,0.00
2023-04-27T01:55:08.585Z,0.00
2023-04-27T01:56:08.544Z,0.00
2023-04-27T01:57:08.553Z,0.00
2023-04-27T01:58:08.535Z,0.00
2023-04-27T01:59:08.526Z,0.00
2023-04-27T02:00:08.507Z,0.00
2023-04-27T02:01:08.496Z,0.00
2023-04-27T02:02:08.608Z,0.00
2023-04-27T02:03:08.642Z,0.00
2023-04-27T02:04:08.673Z,0.00
2023-04-27T02:05:08.497Z,0.00
2023-04-27T02:06:08.460Z,0.00
2023-04-27T02:07:08.467Z,0.00
2023-04-27T02:08:08.405Z,0.00
2023-04-27T02:09:08.414Z,0.00
2023-04-27T02:10:08.402Z,0.00
2023-04-27T02:11:08.466Z,0.00
2023-04-27T02:12:08.406Z,0.00
2023-04-27T02:13:08.378Z,0.00
2023-04-27T02:14:08.352Z,0.00
2023-04-27T02:15:08.339Z,0.00
2023-04-27T02:16:08.387Z,0.00
2023-04-27T02:17:08.337Z,0.00
2023-04-27T02:18:08.324Z,0.00
2023-04-27T02:19:08.314Z,0.00
2023-04-27T02:20:08.266Z,0.00
2023-04-27T02:21:08.274Z,0.00
2023-04-27T02:22:08.295Z,0.00
2023-04-27T02:23:08.260Z,0.00
2023-04-27T02:24:08.240Z,0.00
2023-04-27T02:25:08.215Z,0.00
2023-04-27T02:26:08.222Z,0.00
2023-04-27T02:27:08.419Z,0.00
2023-04-27T02:28:08.176Z,0.00
2023-04-27T02:29:08.193Z,0.00
2023-04-27T02:30:08.165Z,0.00
2023-04-27T02:31:08.161Z,0.00
2023-04-27T02:32:08.164Z,0.00
2023-04-27T02:33:08.241Z,0.00
2023-04-27T02:34:08.126Z,0.00
2023-04-27T02:35:08.112Z,0.00
2023-04-27T02:36:08.113Z,0.00
2023-04-27T02:37:08.107Z,0.00
2023-04-27T02:38:08.080Z,0.00
2023-04-27T02:39:08.071Z,0.00
2023-04-27T02:40:08.042Z,0.00
2023-04-27T02:41:08.044Z,0.00
2023-04-27T02:42:08.020Z,0.00
2023-04-27T02:43:08.066Z,0.00
2023-04-27T02:44:08.009Z,0.00
2023-04-27T02:45:07.993Z,0.00
2023-04-27T02:46:08.015Z,0.00
2023-04-27T02:47:08.114Z,0.00
2023-04-27T02:48:08.031Z,0.00
2023-04-27T02:49:07.955Z,0.00
2023-04-27T02:50:07.956Z,0.00
2023-04-27T02:51:07.953Z,0.00
2023-04-27T02:52:07.936Z,0.00
2023-04-27T02:53:07.922Z,0.00
2023-04-27T02:54:07.884Z,0.00
2023-04-27T02:55:07.888Z,0.00
2023-04-27T02:56:07.873Z,0.00
2023-04-27T02:57:07.860Z,0.00
2023-04-27T02:58:07.849Z,0.00
2023-04-27T02:59:07.903Z,0.00
2023-04-27T03:00:07.819Z,0.00
2023-04-27T03:01:07.822Z,0.00
2023-04-27T03:02:07.814Z,0.00
2023-04-27T03:03:07.904Z,0.00
2023-04-27T03:04:07.972Z,0.00
2023-04-27T03:05:07.764Z,0.00
2023-04-27T03:06:07.748Z,0.00
2023-04-27T03:07:07.751Z,0.00
2023-04-27T03:08:07.776Z,0.00
2023-04-27T03:09:07.720Z,0.00
2023-04-27T03:10:07.695Z,0.00
2023-04-27T03:11:07.694Z,0.00
2023-04-27T03:12:07.685Z,0.00
2023-04-27T03:13:07.698Z,0.00
2023-04-27T03:14:07.657Z,0.00
2023-04-27T03:15:07.666Z,0.00
2023-04-27T03:16:07.678Z,0.00
2023-04-27T03:17:07.638Z,0.00
2023-04-27T03:18:07.720Z,0.00
2023-04-27T03:19:07.609Z,0.00
2023-04-27T03:20:07.633Z,0.00
2023-04-27T03:21:07.595Z,0.00
2023-04-27T03:22:07.578Z,0.00
2023-04-27T03:23:07.557Z,0.00
2023-04-27T03:24:07.562Z,0.00
2023-04-27T03:25:07.581Z,0.00
2023-04-27T03:26:07.512Z,0.00
2023-04-27T03:27:07.537Z,0.00
2023-04-27T03:28:07.510Z,0.00
2023-04-27T03:29:07.485Z,0.00
2023-04-27T03:30:07.489Z,0.00
2023-04-27T03:31:07.547Z,0.00
2023-04-27T03:32:07.494Z,0.00
2023-04-27T03:33:07.522Z,0.00
2023-04-27T03:34:07.430Z,0.00
2023-04-27T03:35:07.437Z,0.00
2023-04-27T03:36:07.402Z,0.00
2023-04-27T03:37:07.396Z,0.00
2023-04-27T03:38:07.395Z,0.00
2023-04-27T03:39:07.369Z,0.00
2023-04-27T03:40:07.395Z,0.00
2023-04-27T03:41:07.364Z,0.00
2023-04-27T03:42:07.332Z,0.00
2023-04-27T03:43:07.337Z,0.00
2023-04-27T03:44:07.321Z,0.00
2023-04-27T03:45:07.354Z,0.00
2023-04-27T03:46:07.388Z,4.00
2023-04-27T03:47:07.314Z,4.00
2023-04-27T03:48:07.352Z,4.00
2023-04-27T03:49:07.253Z,0.00
2023-04-27T03:50:07.236Z,0.00
2023-04-27T03:51:07.243Z,4.00
2023-04-27T03:52:07.220Z,4.00
2023-04-27T03:53:07.230Z,4.00
2023-04-27T03:54:07.202Z,8.00
2023-04-27T03:55:07.215Z,4.00
2023-04-27T03:56:07.185Z,4.00
2023-04-27T03:57:07.166Z,4.00
2023-04-27T03:58:07.181Z,8.00
2023-04-27T03:59:07.162Z,4.00
2023-04-27T04:00:07.153Z,8.00
2023-04-27T04:01:07.142Z,8.00
2023-04-27T04:02:07.156Z,12.00
2023-04-27T04:03:07.438Z,12.00
2023-04-27T04:04:07.258Z,12.00
2023-04-27T04:05:07.140Z,16.00
2023-04-27T04:06:07.067Z,20.00
2023-04-27T04:07:07.065Z,20.00
2023-04-27T04:08:07.068Z,24.00
2023-04-27T04:09:07.026Z,28.00
2023-04-27T04:10:07.062Z,28.00
2023-04-27T04:11:07.020Z,32.00
2023-04-27T04:12:06.997Z,40.00
2023-04-27T04:13:06.998Z,40.00
2023-04-27T04:14:07.006Z,44.00
2023-04-27T04:15:07.011Z,48.00
2023-04-27T04:16:07.034Z,56.00
2023-04-27T04:17:06.957Z,60.00
2023-04-27T04:18:06.945Z,64.00
2023-04-27T04:19:06.964Z,68.00
2023-04-27T04:20:06.912Z,80.00
2023-04-27T04:21:06.897Z,84.00
2023-04-27T04:22:06.884Z,92.00
2023-04-27T04:23:06.930Z,96.00
2023-04-27T04:24:06.888Z,104.00
2023-04-27T04:25:06.870Z,112.00
2023-04-27T04:26:06.836Z,120.00
2023-04-27T04:27:06.829Z,128.00
2023-04-27T04:28:06.810Z,136.00
2023-04-27T04:29:08.386Z,148.00
2023-04-27T04:30:06.841Z,152.00
2023-04-27T04:31:06.828Z,164.00
2023-04-27T04:32:06.765Z,172.00
2023-04-27T04:33:06.801Z,180.00
2023-04-27T04:34:06.782Z,192.00
2023-04-27T04:35:06.766Z,204.00
2023-04-27T04:36:06.779Z,212.00
2023-04-27T04:37:06.754Z,228.00
2023-04-27T04:38:06.729Z,240.00
2023-04-27T04:39:06.732Z,252.00
2023-04-27T04:40:06.693Z,268.00
2023-04-27T04:41:06.681Z,276.00
2023-04-27T04:42:06.671Z,292.00
2023-04-27T04:43:06.676Z,308.00
2023-04-27T04:44:06.642Z,324.00
2023-04-27T04:45:06.661Z,340.00
2023-04-27T04:46:06.787Z,356.00
2023-04-27T04:47:06.615Z,372.00
2023-04-27T04:48:06.680Z,384.00
2023-04-27T04:49:06.595Z,400.00
2023-04-27T04:50:06.594Z,416.00
2023-04-27T04:51:06.578Z,432.00
2023-04-27T04:52:06.573Z,456.00
2023-04-27T04:53:06.560Z,476.00
2023-04-27T04:54:06.547Z,488.00
2023-04-27T04:55:06.570Z,504.00
2023-04-27T04:56:06.504Z,516.00
2023-04-27T04:57:06.485Z,532.00
2023-04-27T04:58:06.502Z,548.00
2023-04-27T04:59:06.488Z,564.00
2023-04-27T05:00:06.476Z,584.00
2023-04-27T05:01:06.587Z,600.00
2023-04-27T05:02:06.520Z,620.00
2023-04-27T05:04:06.702Z,664.00
2023-04-27T05:05:06.508Z,684.00
2023-04-27T05:06:06.450Z,700.00
2023-04-27T05:07:06.613Z,716.00
2023-04-27T05:08:06.391Z,736.00
2023-04-27T05:09:06.380Z,756.00
2023-04-27T05:10:06.347Z,780.00
2023-04-27T05:11:06.357Z,804.00
2023-04-27T05:12:06.310Z,836.00
2023-04-27T05:13:07.191Z,880.00
2023-04-27T05:14:06.286Z,932.00
2023-04-27T05:15:06.288Z,988.00
2023-04-27T05:16:06.486Z,1048.00
2023-04-27T05:17:06.282Z,1096.00
2023-04-27T05:18:06.260Z,1128.00
2023-04-27T05:19:06.248Z,1156.00
2023-04-27T05:20:06.244Z,1184.00
2023-04-27T05:21:06.230Z,1220.00
2023-04-27T05:22:06.203Z,1252.00
2023-04-27T05:23:06.217Z,1288.00
2023-04-27T05:24:06.193Z,1308.00
2023-04-27T05:25:06.179Z,1376.00
2023-04-27T05:26:06.200Z,1412.00
2023-04-27T05:27:06.159Z,1440.00
2023-04-27T05:28:06.128Z,1476.00
2023-04-27T05:29:06.160Z,1508.00
2023-04-27T05:30:06.128Z,1560.00
2023-04-27T05:31:06.125Z,1660.00
2023-04-27T05:32:06.199Z,1676.00
2023-04-27T05:33:06.226Z,1688.00
2023-04-27T05:34:06.061Z,1728.00
2023-04-27T05:35:06.067Z,1780.00
2023-04-27T05:36:06.049Z,1812.00
2023-04-27T05:37:06.049Z,1808.00
2023-04-27T05:38:06.030Z,1828.00
2023-04-27T05:39:06.043Z,1844.00
2023-04-27T05:40:06.014Z,1872.00
2023-04-27T05:41:06.011Z,1908.00
2023-04-27T05:42:05.989Z,1936.00
2023-04-27T05:43:05.974Z,1940.00
2023-04-27T05:44:05.962Z,1936.00
2023-04-27T05:45:06.008Z,1932.00
2023-04-27T05:46:06.023Z,1988.00
2023-04-27T05:47:05.935Z,1900.00
2023-04-27T05:48:06.008Z,1724.00
2023-04-27T05:49:05.942Z,2028.00
2023-04-27T05:50:05.884Z,1968.00
2023-04-27T05:51:05.902Z,1836.00
2023-04-27T05:52:05.870Z,1960.00
2023-04-27T05:53:05.927Z,2000.00
2023-04-27T05:54:05.847Z,1976.00
2023-04-27T05:55:05.846Z,2264.00
2023-04-27T05:56:05.854Z,2276.00
2023-04-27T05:57:05.802Z,2256.00
2023-04-27T05:58:08.464Z,2328.00
2023-04-27T05:59:05.794Z,2124.00
2023-04-27T06:00:05.784Z,2236.00
2023-04-27T06:01:05.798Z,2192.00
2023-04-27T06:02:05.782Z,2260.00
2023-04-27T06:03:05.837Z,2380.00
2023-04-27T06:04:05.826Z,2228.00
2023-04-27T06:05:05.761Z,2448.00
2023-04-27T06:06:05.741Z,2384.00
2023-04-27T06:07:05.693Z,2544.00
2023-04-27T06:08:05.681Z,2224.00
2023-04-27T06:09:05.664Z,2608.00
2023-04-27T06:10:05.661Z,2664.00
2023-04-27T06:11:05.683Z,2728.00
2023-04-27T06:12:05.680Z,2636.00
2023-04-27T06:13:05.635Z,2496.00
2023-04-27T06:14:05.633Z,2548.00
2023-04-27T06:15:05.598Z,2696.00
2023-04-27T06:16:05.636Z,3008.00
2023-04-27T06:17:05.587Z,3004.00
2023-04-27T06:18:05.622Z,3068.00
2023-04-27T06:19:05.552Z,2752.00
2023-04-27T06:20:05.544Z,3204.00
2023-04-27T06:21:05.544Z,3212.00
2023-04-27T06:22:05.532Z,3236.00
2023-04-27T06:23:05.555Z,3272.00
2023-04-27T06:24:05.511Z,3308.00
2023-04-27T06:25:05.503Z,3304.00
2023-04-27T06:26:05.480Z,3352.00
2023-04-27T06:27:05.511Z,3384.00
2023-04-27T06:28:05.468Z,3420.00
2023-04-27T06:29:05.479Z,3448.00
2023-04-27T06:30:05.436Z,3480.00
2023-04-27T06:31:05.594Z,3500.00
2023-04-27T06:32:05.424Z,3524.00
2023-04-27T06:33:05.464Z,3572.00
2023-04-27T06:34:05.404Z,3576.00
2023-04-27T06:35:05.400Z,3620.00
2023-04-27T06:36:05.367Z,3644.00
2023-04-27T06:37:05.343Z,3664.00
2023-04-27T06:38:07.525Z,3708.00
2023-04-27T06:39:05.326Z,3700.00
2023-04-27T06:40:05.316Z,3752.00
2023-04-27T06:41:05.297Z,3772.00
2023-04-27T06:42:05.299Z,3816.00
2023-04-27T06:43:05.355Z,3836.00
2023-04-27T06:44:05.268Z,3868.00
2023-04-27T06:45:05.255Z,3912.00
2023-04-27T06:46:05.309Z,3960.00
2023-04-27T06:47:05.250Z,4008.00
2023-04-27T06:48:05.286Z,4048.00
2023-04-27T06:49:05.221Z,4104.00
2023-04-27T06:50:05.201Z,4036.00
2023-04-27T06:51:05.200Z,3972.00
2023-04-27T06:52:05.202Z,3576.00
2023-04-27T06:53:05.177Z,3320.00
2023-04-27T06:54:05.168Z,4020.00
2023-04-27T06:55:05.143Z,4004.00
2023-04-27T06:56:05.148Z,4012.00
2023-04-27T06:57:05.129Z,4016.00
2023-04-27T06:58:05.134Z,4052.00
2023-04-27T06:59:05.115Z,4084.00
2023-04-27T07:00:05.128Z,4144.00
2023-04-27T07:01:05.106Z,4136.00
2023-04-27T07:02:05.073Z,4112.00
2023-04-27T07:03:05.152Z,4072.00
2023-04-27T07:04:05.213Z,4132.00
2023-04-27T07:05:05.053Z,4204.00
2023-04-27T07:06:05.031Z,4140.00
2023-04-27T07:07:05.014Z,4024.00
2023-04-27T07:08:07.909Z,3944.00
2023-04-27T07:09:10.452Z,3972.00
2023-04-27T07:10:06.006Z,4164.00
2023-04-27T07:11:04.984Z,4452.00
2023-04-27T07:12:04.961Z,4664.00
2023-04-27T07:13:07.354Z,4556.00
2023-04-27T07:14:04.945Z,4180.00
2023-04-27T07:15:04.953Z,4168.00
2023-04-27T07:16:04.934Z,4696.00
2023-04-27T07:17:04.888Z,5104.00
2023-04-27T07:18:04.958Z,4952.00
2023-04-27T07:19:04.880Z,4504.00
2023-04-27T07:20:04.901Z,4368.00
2023-04-27T07:21:04.863Z,4484.00
2023-04-27T07:22:04.850Z,4704.00
2023-04-27T07:23:04.840Z,4872.00
2023-04-27T07:24:04.830Z,4996.00
2023-04-27T07:25:04.812Z,5040.00
2023-04-27T07:26:04.841Z,5084.00
2023-04-27T07:27:04.778Z,4920.00
2023-04-27T07:28:04.788Z,4900.00
2023-04-27T07:29:14.456Z,5000.00
2023-04-27T07:30:05.805Z,4628.00
2023-04-27T07:31:04.761Z,4368.00
2023-04-27T07:32:04.747Z,4288.00
2023-04-27T07:33:04.805Z,4532.00
2023-04-27T07:34:04.717Z,5260.00
2023-04-27T07:35:04.705Z,5448.00
2023-04-27T07:36:04.678Z,5476.00
2023-04-27T07:37:04.664Z,5060.00
2023-04-27T07:38:04.655Z,4840.00
2023-04-27T07:39:04.637Z,5268.00
2023-04-27T07:40:04.648Z,4988.00
2023-04-27T07:41:04.643Z,5204.00
2023-04-27T07:42:04.605Z,5204.00
2023-04-27T07:43:04.590Z,5280.00
2023-04-27T07:44:04.601Z,5568.00
2023-04-27T07:45:04.587Z,5820.00
2023-04-27T07:46:04.651Z,5684.00
2023-04-27T07:47:04.583Z,5084.00
2023-04-27T07:48:04.611Z,4868.00
2023-04-27T07:49:04.541Z,5200.00
2023-04-27T07:50:04.567Z,5744.00
2023-04-27T07:51:04.508Z,6144.00
2023-04-27T07:52:04.496Z,6228.00
2023-04-27T07:53:04.484Z,6052.00
2023-04-27T07:54:04.487Z,6240.00
2023-04-27T07:55:04.475Z,6132.00
2023-04-27T07:56:04.447Z,6208.00
2023-04-27T07:57:04.431Z,6192.00
2023-04-27T07:58:04.438Z,6204.00
2023-04-27T07:59:04.415Z,6360.00
2023-04-27T08:00:04.458Z,6644.00
2023-04-27T08:01:04.451Z,6620.00
2023-04-27T08:02:18.361Z,6072.00
2023-04-27T08:03:05.863Z,5628.00
2023-04-27T08:04:04.749Z,6160.00
2023-04-27T08:05:04.731Z,6212.00
2023-04-27T08:06:04.831Z,5924.00
2023-04-27T08:07:05.174Z,5980.00
2023-04-27T08:08:04.633Z,6140.00
2023-04-27T08:09:04.321Z,6092.00
2023-04-27T08:10:04.336Z,6320.00
2023-04-27T08:11:04.280Z,6440.00
2023-04-27T08:12:04.284Z,6680.00
2023-04-27T08:13:04.283Z,6420.00
2023-04-27T08:14:04.270Z,6416.00
2023-04-27T08:15:04.227Z,6416.00
2023-04-27T08:16:04.245Z,6908.00
2023-04-27T08:17:04.281Z,7064.00
2023-04-27T08:18:04.241Z,6964.00
2023-04-27T08:19:04.260Z,6820.00
2023-04-27T08:20:04.188Z,6364.00
2023-04-27T08:21:04.177Z,5992.00
2023-04-27T08:22:04.205Z,6460.00
2023-04-27T08:23:04.149Z,6500.00
2023-04-27T08:24:04.148Z,6508.00
2023-04-27T08:25:04.130Z,7000.00
2023-04-27T08:26:04.131Z,6940.00
2023-04-27T08:27:04.094Z,7036.00
2023-04-27T08:28:04.081Z,7204.00
2023-04-27T08:29:11.995Z,7240.00
2023-04-27T08:30:05.061Z,7152.00
2023-04-27T08:31:04.099Z,7280.00
2023-04-27T08:32:04.053Z,7216.00
2023-04-27T08:33:04.112Z,7196.00
2023-04-27T08:34:04.035Z,7168.00
2023-04-27T08:35:04.036Z,6564.00
2023-04-27T08:36:04.024Z,6548.00
2023-04-27T08:37:03.986Z,7204.00
2023-04-27T08:38:03.968Z,7132.00
2023-04-27T08:39:03.959Z,7284.00
2023-04-27T08:40:03.999Z,7616.00
2023-04-27T08:41:18.007Z,7716.00
2023-04-27T08:42:04.955Z,7624.00
2023-04-27T08:43:03.927Z,7588.00
2023-04-27T08:44:03.899Z,7460.00
2023-04-27T08:45:03.884Z,7680.00
2023-04-27T08:46:03.930Z,7436.00
2023-04-27T08:47:03.874Z,7792.00
2023-04-27T08:48:03.959Z,7488.00
2023-04-27T08:49:03.853Z,7572.00
2023-04-27T08:50:03.863Z,7500.00
2023-04-27T08:51:04.015Z,6848.00
2023-04-27T08:52:03.852Z,6964.00
2023-04-27T08:53:03.842Z,7084.00
2023-04-27T08:54:03.810Z,7148.00
2023-04-27T08:55:03.778Z,7368.00
2023-04-27T08:56:03.779Z,7412.00
2023-04-27T08:57:03.766Z,7348.00
2023-04-27T08:58:03.766Z,7396.00
2023-04-27T08:59:03.751Z,6952.00
2023-04-27T09:00:03.734Z,6948.00
2023-04-27T09:01:03.729Z,7396.00
2023-04-27T09:02:03.761Z,7512.00
2023-04-27T09:03:03.978Z,7808.00
2023-04-27T09:04:03.840Z,7444.00
2023-04-27T09:05:03.973Z,7604.00
2023-04-27T09:06:05.693Z,7312.00
2023-04-27T09:07:03.660Z,7596.00
2023-04-27T09:08:03.682Z,7836.00
2023-04-27T09:09:03.671Z,7744.00
2023-04-27T09:10:03.616Z,8036.00
2023-04-27T09:11:03.621Z,7984.00
2023-04-27T09:12:03.596Z,8052.00
2023-04-27T09:13:03.584Z,7632.00
2023-04-27T09:14:03.568Z,7884.00
2023-04-27T09:15:03.634Z,8076.00
2023-04-27T09:16:03.606Z,7908.00
2023-04-27T09:17:03.543Z,7836.00
2023-04-27T09:18:03.554Z,7744.00
2023-04-27T09:19:03.514Z,7412.00
2023-04-27T09:20:03.505Z,7592.00
2023-04-27T09:21:03.499Z,7400.00
2023-04-27T09:22:03.490Z,7836.00
2023-04-27T09:23:04.409Z,7972.00
2023-04-27T09:24:03.453Z,7892.00
2023-04-27T09:25:03.451Z,8100.00
2023-04-27T09:26:03.462Z,7376.00
2023-04-27T09:27:03.449Z,7588.00
2023-04-27T09:28:03.411Z,7716.00
2023-04-27T09:29:03.411Z,7648.00
2023-04-27T09:30:03.383Z,5812.00
2023-04-27T09:31:03.383Z,6620.00
2023-04-27T09:32:03.467Z,7320.00
2023-04-27T09:33:03.381Z,7484.00
2023-04-27T09:34:03.350Z,7476.00
2023-04-27T09:35:03.366Z,7508.00
2023-04-27T09:36:03.455Z,8044.00
2023-04-27T09:37:03.325Z,7764.00
2023-04-27T09:38:03.302Z,7848.00
2023-04-27T09:39:03.311Z,7888.00
2023-04-27T09:40:03.284Z,7856.00
2023-04-27T09:41:03.380Z,7952.00
2023-04-27T09:42:03.273Z,8076.00
2023-04-27T09:43:03.246Z,8104.00
2023-04-27T09:44:03.250Z,8276.00
2023-04-27T09:45:03.214Z,8132.00
2023-04-27T09:46:03.313Z,7544.00
2023-04-27T09:47:03.189Z,6500.00
2023-04-27T09:48:03.312Z,6448.00
2023-04-27T09:49:03.166Z,6644.00
2023-04-27T09:50:03.184Z,7480.00
2023-04-27T09:51:03.144Z,6840.00
2023-04-27T09:52:03.164Z,7172.00
2023-04-27T09:53:03.131Z,7484.00
2023-04-27T09:54:03.153Z,6940.00
2023-04-27T09:55:03.166Z,5744.00
2023-04-27T09:56:03.091Z,6536.00
2023-04-27T09:57:03.077Z,7532.00
2023-04-27T09:58:03.086Z,7512.00
2023-04-27T09:59:03.089Z,6420.00
2023-04-27T10:00:03.056Z,6344.00
2023-04-27T10:01:03.074Z,6192.00
2023-04-27T10:02:17.166Z,6232.00
2023-04-27T10:03:04.122Z,6668.00
2023-04-27T10:04:03.167Z,5696.00
2023-04-27T10:05:03.079Z,5548.00
2023-04-27T10:06:02.983Z,6248.00
2023-04-27T10:07:02.979Z,5732.00
2023-04-27T10:08:02.972Z,5948.00
2023-04-27T10:09:02.943Z,6412.00
2023-04-27T10:10:02.982Z,6428.00
2023-04-27T10:11:02.962Z,6472.00
2023-04-27T10:12:02.914Z,6792.00
2023-04-27T10:13:02.914Z,6600.00
2023-04-27T10:14:02.879Z,6072.00
2023-04-27T10:15:02.891Z,6080.00
2023-04-27T10:16:02.893Z,6208.00
2023-04-27T10:17:03.029Z,6368.00
2023-04-27T10:18:02.858Z,6440.00
2023-04-27T10:19:02.852Z,6468.00
2023-04-27T10:20:02.835Z,5476.00
2023-04-27T10:21:02.828Z,6476.00
2023-04-27T10:22:02.861Z,6448.00
2023-04-27T10:23:02.797Z,6720.00
2023-04-27T10:24:02.797Z,6316.00
2023-04-27T10:25:02.776Z,6156.00
2023-04-27T10:26:02.769Z,5656.00
2023-04-27T10:27:02.808Z,5716.00
2023-04-27T10:28:02.792Z,6164.00
2023-04-27T10:29:02.750Z,5436.00
2023-04-27T10:30:02.714Z,5824.00
2023-04-27T10:31:02.777Z,6284.00
2023-04-27T10:32:02.698Z,6200.00
2023-04-27T10:33:02.732Z,5796.00
2023-04-27T10:34:02.712Z,5400.00
2023-04-27T10:35:02.658Z,6104.00
2023-04-27T10:36:02.664Z,6308.00
2023-04-27T10:37:02.743Z,6400.00
2023-04-27T10:38:02.655Z,6016.00
2023-04-27T10:39:02.628Z,5788.00
2023-04-27T10:40:02.608Z,5688.00
2023-04-27T10:41:02.664Z,5432.00
2023-04-27T10:42:02.583Z,5460.00
2023-04-27T10:43:02.616Z,5640.00
2023-04-27T10:44:02.588Z,5316.00
2023-04-27T10:45:02.598Z,5400.00
2023-04-27T10:46:02.564Z,5616.00
2023-04-27T10:47:02.537Z,5792.00
2023-04-27T10:48:02.647Z,5496.00
2023-04-27T10:49:02.510Z,5260.00
2023-04-27T10:50:02.519Z,5416.00
2023-04-27T10:51:02.479Z,5400.00
2023-04-27T10:52:02.497Z,5056.00
2023-04-27T10:53:02.462Z,5068.00
2023-04-27T10:54:02.459Z,5080.00
2023-04-27T10:55:02.446Z,5196.00
2023-04-27T10:56:02.434Z,5248.00
2023-04-27T10:57:02.448Z,5244.00
2023-04-27T10:58:02.417Z,5460.00
2023-04-27T10:59:02.428Z,5420.00
2023-04-27T11:00:02.389Z,5480.00
2023-04-27T11:01:02.383Z,5520.00
2023-04-27T11:02:02.454Z,5004.00
2023-04-27T11:03:02.413Z,5192.00
2023-04-27T11:04:02.346Z,5304.00
2023-04-27T11:05:02.388Z,5140.00
2023-04-27T11:06:02.327Z,5256.00
2023-04-27T11:07:02.314Z,5228.00
2023-04-27T11:08:02.297Z,4972.00
2023-04-27T11:09:02.386Z,5148.00
2023-04-27T11:10:02.286Z,5132.00
2023-04-27T11:11:02.279Z,5100.00
2023-04-27T11:12:02.299Z,5120.00
2023-04-27T11:13:02.279Z,5120.00
2023-04-27T11:14:02.261Z,4940.00
2023-04-27T11:15:02.255Z,4892.00
2023-04-27T11:16:02.269Z,4784.00
2023-04-27T11:17:02.206Z,4960.00
2023-04-27T11:18:02.241Z,4936.00
2023-04-27T11:19:02.205Z,4932.00
2023-04-27T11:20:02.165Z,4992.00
2023-04-27T11:21:02.168Z,4860.00
2023-04-27T11:22:02.142Z,4692.00
2023-04-27T11:23:02.145Z,4608.00
2023-04-27T11:24:02.121Z,4468.00
2023-04-27T11:25:02.117Z,4324.00
2023-04-27T11:26:02.172Z,4328.00
2023-04-27T11:27:02.093Z,4456.00
2023-04-27T11:28:02.060Z,4668.00
2023-04-27T11:29:02.067Z,4820.00
2023-04-27T11:30:02.045Z,4700.00
2023-04-27T11:31:02.098Z,4776.00
2023-04-27T11:32:02.205Z,4804.00
2023-04-27T11:33:02.073Z,4824.00
2023-04-27T11:34:02.021Z,4692.00
2023-04-27T11:35:02.004Z,4584.00
2023-04-27T11:36:02.030Z,4664.00
2023-04-27T11:38:01.960Z,4628.00
2023-04-27T11:39:02.007Z,4692.00
2023-04-27T11:40:01.937Z,4628.00
2023-04-27T11:41:01.934Z,4560.00
2023-04-27T11:42:01.949Z,4568.00
2023-04-27T11:43:01.910Z,4664.00
2023-04-27T11:44:01.894Z,4708.00
2023-04-27T11:45:01.887Z,4736.00
2023-04-27T11:46:01.905Z,4776.00
2023-04-27T11:47:01.935Z,4760.00
2023-04-27T11:48:01.916Z,4848.00
2023-04-27T11:49:01.826Z,4852.00
2023-04-27T11:50:01.833Z,4924.00
2023-04-27T11:51:01.853Z,4816.00
2023-04-27T11:52:01.794Z,4704.00
2023-04-27T11:53:01.831Z,4632.00
2023-04-27T11:54:01.778Z,4640.00
2023-04-27T11:55:01.779Z,4536.00
2023-04-27T11:56:01.794Z,4320.00
2023-04-27T11:57:01.745Z,4264.00
2023-04-27T11:58:01.757Z,4248.00
2023-04-27T11:59:01.736Z,4152.00
2023-04-27T12:00:01.731Z,4172.00
2023-04-27T12:01:01.771Z,4152.00
2023-04-27T12:02:01.729Z,4200.00
2023-04-27T12:03:01.950Z,4272.00
2023-04-27T12:04:02.643Z,4268.00
2023-04-27T12:05:01.882Z,4324.00
2023-04-27T12:07:01.630Z,4264.00
2023-04-27T12:08:01.625Z,4304.00
2023-04-27T12:09:01.601Z,4268.00
2023-04-27T12:10:01.616Z,4408.00
2023-04-27T12:11:01.694Z,4400.00
2023-04-27T12:12:01.566Z,4696.00
2023-04-27T12:13:01.561Z,4512.00
2023-04-27T12:14:01.541Z,4448.00
2023-04-27T12:15:01.568Z,4412.00
2023-04-27T12:16:01.538Z,4496.00
2023-04-27T12:17:01.544Z,4556.00
2023-04-27T12:18:01.630Z,4544.00
2023-04-27T12:19:01.519Z,4356.00
2023-04-27T12:20:01.509Z,4576.00
2023-04-27T12:21:03.292Z,4728.00
2023-04-27T12:22:01.470Z,4344.00
2023-04-27T12:23:01.468Z,4520.00
2023-04-27T12:24:01.431Z,4396.00
2023-04-27T12:25:01.452Z,4072.00
2023-04-27T12:26:01.478Z,3996.00
2023-04-27T12:27:01.442Z,4100.00
2023-04-27T12:28:01.392Z,4368.00
2023-04-27T12:29:01.399Z,4372.00
2023-04-27T12:30:01.391Z,4424.00
2023-04-27T12:31:01.385Z,4248.00
2023-04-27T12:32:01.458Z,4436.00
2023-04-27T12:33:01.356Z,4492.00